createdAt,value
2024-05-09T00:03:17.841Z,96427.00
2024-05-09T00:08:46.549Z,96421.00
2024-05-09T00:14:14.567Z,96414.00
2024-05-09T00:19:44.233Z,96409.00
2024-05-09T00:25:12.284Z,96401.00
2024-05-09T00:30:40.728Z,96397.00
2024-05-09T00:36:08.839Z,96396.00
2024-05-09T00:41:37.005Z,96395.00
2024-05-09T00:47:05.473Z,96392.00
2024-05-09T00:52:33.766Z,96398.00
2024-05-09T00:58:03.217Z,96394.00
2024-05-09T01:03:31.387Z,96389.00
2024-05-09T01:08:59.526Z,96386.00
2024-05-09T01:14:27.549Z,96389.00
2024-05-09T01:19:55.610Z,96390.00
2024-05-09T01:25:23.595Z,96392.00
2024-05-09T01:30:51.636Z,96393.00
2024-05-09T01:36:19.721Z,96391.00
2024-05-09T01:41:47.682Z,96387.00
2024-05-09T01:47:15.799Z,96389.00
2024-05-09T01:52:43.904Z,96391.00
2024-05-09T01:58:11.979Z,96392.00
2024-05-09T02:03:40.038Z,96389.00
2024-05-09T02:09:09.064Z,96396.00
2024-05-09T02:14:37.005Z,96399.00
2024-05-09T02:20:06.291Z,96394.00
2024-05-09T02:25:34.929Z,96389.00
2024-05-09T02:31:02.992Z,96387.00
2024-05-09T02:36:30.930Z,96394.00
2024-05-09T02:41:58.835Z,96385.00
2024-05-09T02:47:26.860Z,96390.00
2024-05-09T02:52:54.920Z,96390.00
2024-05-09T02:58:22.903Z,96396.00
2024-05-09T03:03:52.368Z,96389.00
2024-05-09T03:09:21.715Z,96389.00
2024-05-09T03:14:50.964Z,96394.00
2024-05-09T03:20:23.852Z,96385.00
2024-05-09T03:25:55.739Z,96394.00
2024-05-09T03:31:23.963Z,96393.00
2024-05-09T03:36:52.167Z,96391.00
2024-05-09T03:42:20.133Z,96389.00
2024-05-09T03:47:48.403Z,96386.00
2024-05-09T03:53:16.967Z,96382.00
2024-05-09T03:58:48.245Z,96390.00
2024-05-09T04:04:16.368Z,96392.00
2024-05-09T04:09:44.335Z,96405.00
2024-05-09T04:15:13.679Z,96395.00
2024-05-09T04:20:41.910Z,96402.00
2024-05-09T04:26:10.074Z,96408.00
2024-05-09T04:31:38.270Z,96411.00
2024-05-09T04:37:07.244Z,96416.00
2024-05-09T04:42:35.281Z,96419.00
2024-05-09T04:48:03.811Z,96418.00
2024-05-09T04:53:32.075Z,96434.00
2024-05-09T04:59:00.221Z,96439.00
2024-05-09T05:04:28.294Z,96429.00
2024-05-09T05:09:56.358Z,96432.00
2024-05-09T05:15:24.549Z,96430.00
2024-05-09T05:20:52.754Z,96430.00
2024-05-09T05:26:21.174Z,96437.00
2024-05-09T05:31:49.182Z,96439.00
2024-05-09T05:37:18.281Z,96443.00
2024-05-09T05:42:46.315Z,96445.00
2024-05-09T05:48:18.224Z,96445.00
2024-05-09T05:53:46.538Z,96449.00
2024-05-09T05:59:15.616Z,96455.00
2024-05-09T06:04:43.919Z,96453.00
2024-05-09T06:10:17.593Z,96447.00
2024-05-09T06:16:47.668Z,96448.00
2024-05-09T06:22:15.919Z,96447.00
2024-05-09T06:27:43.902Z,96445.00
2024-05-09T06:33:15.135Z,96444.00
2024-05-09T06:38:44.715Z,96446.00
2024-05-09T06:44:12.728Z,96448.00
2024-05-09T06:49:41.580Z,96458.00
2024-05-09T06:55:10.630Z,96463.00
2024-05-09T07:00:41.117Z,96461.00
2024-05-09T07:06:10.554Z,96461.00
2024-05-09T07:11:38.817Z,96464.00
2024-05-09T07:17:06.973Z,96466.00
2024-05-09T07:22:35.150Z,96463.00
2024-05-09T07:28:04.847Z,96461.00
2024-05-09T07:33:33.400Z,96458.00
2024-05-09T07:39:01.674Z,96466.00
2024-05-09T07:44:30.772Z,96469.00
2024-05-09T07:51:33.060Z,96457.00
2024-05-09T07:55:47.162Z,96454.00
2024-05-09T08:01:15.618Z,96446.00
2024-05-09T08:06:43.940Z,96454.00
2024-05-09T08:12:13.806Z,96445.00
2024-05-09T08:17:41.822Z,96466.00
2024-05-09T08:23:11.769Z,96455.00
2024-05-09T08:28:42.480Z,96454.00
2024-05-09T08:34:11.196Z,96452.00
2024-05-09T08:39:40.341Z,96454.00
2024-05-09T08:45:13.917Z,96450.00
2024-05-09T08:50:42.486Z,96449.00
2024-05-09T08:56:12.848Z,96447.00
2024-05-09T09:01:43.548Z,96441.00
2024-05-09T09:07:12.056Z,96440.00
2024-05-09T09:12:40.879Z,96443.00
2024-05-09T09:18:12.150Z,96436.00
2024-05-09T09:23:40.897Z,96447.00
2024-05-09T09:29:09.421Z,96441.00
2024-05-09T09:34:37.748Z,96437.00
2024-05-09T09:40:12.831Z,96445.00
2024-05-09T09:45:43.840Z,96449.00
2024-05-09T09:51:13.087Z,96451.00
2024-05-09T09:56:44.762Z,96458.00
2024-05-09T10:02:14.314Z,96453.00
2024-05-09T10:07:44.080Z,96453.00
2024-05-09T10:13:12.239Z,96449.00
2024-05-09T10:18:41.876Z,96446.00
2024-05-09T10:24:10.253Z,96445.00
2024-05-09T10:29:38.212Z,96444.00
2024-05-09T10:35:12.041Z,96449.00
2024-05-09T10:40:42.006Z,96439.00
2024-05-09T10:46:11.897Z,96442.00
2024-05-09T10:51:41.682Z,96444.00
2024-05-09T10:57:16.436Z,96439.00
2024-05-09T11:02:45.580Z,96436.00
2024-05-09T11:08:14.167Z,96442.00
2024-05-09T11:13:42.515Z,96426.00
2024-05-09T11:19:14.884Z,96428.00
2024-05-09T11:24:43.488Z,96429.00
2024-05-09T11:30:29.580Z,96425.00
2024-05-09T11:36:00.116Z,96431.00
2024-05-09T11:41:31.323Z,96426.00
2024-05-09T11:46:59.632Z,96424.00
2024-05-09T11:52:27.938Z,96428.00
2024-05-09T11:57:56.824Z,96419.00
2024-05-09T12:03:25.350Z,96423.00
2024-05-09T12:08:53.633Z,96409.00
2024-05-09T12:14:21.971Z,96409.00
2024-05-09T12:19:52.825Z,96401.00
2024-05-09T12:25:21.216Z,96406.00
2024-05-09T12:30:50.865Z,96398.00
2024-05-09T12:36:19.094Z,96402.00
2024-05-09T12:41:48.095Z,96395.00
2024-05-09T12:47:16.222Z,96391.00
2024-05-09T12:52:44.422Z,96389.00
2024-05-09T12:58:13.769Z,96389.00
2024-05-09T13:03:42.128Z,96381.00
2024-05-09T13:09:12.180Z,96372.00
2024-05-09T13:14:40.185Z,96373.00
2024-05-09T13:20:14.889Z,96363.00
2024-05-09T13:25:47.031Z,96366.00
2024-05-09T13:31:15.384Z,96348.00
2024-05-09T13:36:43.612Z,96342.00
2024-05-09T13:42:12.468Z,96345.00
2024-05-09T13:47:40.714Z,96346.00
2024-05-09T13:53:09.234Z,96345.00
2024-05-09T13:58:37.351Z,96339.00
2024-05-09T14:04:06.429Z,96329.00
2024-05-09T14:09:34.742Z,96325.00
2024-05-09T14:15:02.951Z,96318.00
2024-05-09T14:20:32.388Z,96311.00
2024-05-09T14:26:00.746Z,96309.00
2024-05-09T14:31:28.970Z,96309.00
2024-05-09T14:36:58.951Z,96302.00
2024-05-09T14:42:28.648Z,96307.00
2024-05-09T14:47:56.886Z,96308.00
2024-05-09T14:53:26.609Z,96308.00
2024-05-09T14:58:55.491Z,96297.00
2024-05-09T15:04:23.779Z,96297.00
2024-05-09T15:09:51.980Z,96298.00
2024-05-09T15:15:20.491Z,96290.00
2024-05-09T15:20:49.456Z,96284.00
2024-05-09T15:26:17.910Z,96281.00
2024-05-09T15:31:46.390Z,96281.00
2024-05-09T15:37:14.824Z,96266.00
2024-05-09T15:42:43.350Z,96260.00
2024-05-09T15:48:11.987Z,96269.00
2024-05-09T15:53:40.954Z,96272.00
2024-05-09T15:59:09.212Z,96259.00
2024-05-09T16:04:39.189Z,96258.00
2024-05-09T16:10:11.061Z,96262.00
2024-05-09T16:15:41.390Z,96261.00
2024-05-09T16:21:09.441Z,96267.00
2024-05-09T16:26:37.528Z,96264.00
2024-05-09T16:32:06.586Z,96262.00
2024-05-09T16:37:34.989Z,96250.00
2024-05-09T16:43:07.020Z,96254.00
2024-05-09T16:48:36.612Z,96257.00
2024-05-09T16:54:04.949Z,96248.00
2024-05-09T16:59:33.255Z,96254.00
2024-05-09T17:05:01.590Z,96248.00
2024-05-09T17:10:33.553Z,96241.00
2024-05-09T17:16:03.762Z,96244.00
2024-05-09T17:21:31.822Z,96241.00
2024-05-09T17:27:00.729Z,96246.00
2024-05-09T17:32:28.925Z,96249.00
2024-05-09T17:37:58.351Z,96248.00
2024-05-09T17:43:26.622Z,96241.00
2024-05-09T17:48:58.808Z,96249.00
2024-05-09T17:54:28.633Z,96243.00
2024-05-09T17:59:56.796Z,96254.00
2024-05-09T18:05:25.533Z,96252.00
2024-05-09T18:10:55.351Z,96251.00
2024-05-09T18:16:24.130Z,96251.00
2024-05-09T18:21:53.721Z,96245.00
2024-05-09T18:27:22.177Z,96251.00
2024-05-09T18:32:50.307Z,96260.00
2024-05-09T18:38:19.158Z,96248.00
2024-05-09T18:43:50.474Z,96262.00
2024-05-09T18:49:19.399Z,96260.00
2024-05-09T18:54:48.094Z,96255.00
2024-05-09T19:00:26.058Z,96263.00
2024-05-09T19:05:59.568Z,96278.00
2024-05-09T19:11:27.728Z,96287.00
2024-05-09T19:17:00.356Z,96279.00
2024-05-09T19:22:28.629Z,96291.00
2024-05-09T19:27:57.210Z,96291.00
2024-05-09T19:33:26.195Z,96296.00
2024-05-09T19:38:54.351Z,96296.00
2024-05-09T19:44:22.463Z,96294.00
2024-05-09T19:49:50.701Z,96298.00
2024-05-09T19:55:19.038Z,96296.00
2024-05-09T20:00:47.992Z,96298.00
2024-05-09T20:06:16.198Z,96299.00
2024-05-09T20:11:44.154Z,96299.00
2024-05-09T20:17:12.477Z,96298.00
2024-05-09T20:22:40.606Z,96292.00
2024-05-09T20:28:08.881Z,96302.00
2024-05-09T20:33:38.222Z,96301.00
2024-05-09T20:39:06.699Z,96308.00
2024-05-09T20:44:36.441Z,96292.00
2024-05-09T20:50:11.381Z,96299.00
2024-05-09T20:55:45.267Z,96296.00
2024-05-09T21:01:13.802Z,96299.00
2024-05-09T21:06:42.190Z,96286.00
2024-05-09T21:12:10.438Z,96288.00
2024-05-09T21:17:38.653Z,96296.00
2024-05-09T21:23:07.461Z,96293.00
2024-05-09T21:28:36.363Z,96293.00
2024-05-09T21:34:04.620Z,96291.00
2024-05-09T21:39:33.003Z,96283.00
2024-05-09T21:45:03.307Z,96291.00
2024-05-09T21:50:38.708Z,96277.00
2024-05-09T21:56:10.011Z,96279.00
2024-05-09T22:01:38.787Z,96279.00
2024-05-09T22:07:09.285Z,96282.00
2024-05-09T22:12:37.348Z,96286.00
2024-05-09T22:18:06.397Z,96280.00
2024-05-09T22:23:34.781Z,96283.00
2024-05-09T22:29:02.903Z,96275.00
2024-05-09T22:34:31.165Z,96266.00
2024-05-09T22:39:59.565Z,96274.00
2024-05-09T22:45:27.602Z,96275.00
2024-05-09T22:50:55.656Z,96270.00
2024-05-09T22:56:28.447Z,96274.00
2024-05-09T23:01:56.626Z,96260.00
2024-05-09T23:07:25.221Z,96263.00
2024-05-09T23:12:53.389Z,96262.00
2024-05-09T23:18:21.509Z,96246.00
2024-05-09T23:23:49.577Z,96247.00
2024-05-09T23:29:17.664Z,96240.00
2024-05-09T23:34:45.862Z,96231.00
2024-05-09T23:40:18.660Z,96232.00
2024-05-09T23:45:47.409Z,96234.00
2024-05-09T23:51:15.523Z,96217.00
2024-05-09T23:56:43.510Z,96212.00
